Time;durP1;ratioP1;P1;durP2;ratioP2;P2;SDS_P1;SDS_P2;PMS_P1;PMS_P2;Temp;Humidity;BMP_temperature;BMP_pressure;BME280_temperature;BME280_humidity;BME280_pressure;Samples;Min_cycle;Max_cycle;Signal;HPM_P1;HPM_P2
2022/06/19 00:01:18;;;;;;;;;;;15.80;99.90;;;;;;5030197;28;19918;-71
2022/06/19 00:03:45;;;;;;;;;;;15.70;99.90;;;;;;5009240;28;19918;-71
2022/06/19 00:06:11;;;;;;;;;;;15.70;99.90;;;;;;5009562;28;19921;-70
2022/06/19 00:08:36;;;;;;;;;;;15.80;99.90;;;;;;5041824;28;19918;-70
2022/06/19 00:11:03;;;;;;;;;;;15.80;99.90;;;;;;5012741;28;20362;-71
2022/06/19 00:13:28;;;;;;;;;;;15.70;99.90;;;;;;5028101;28;19985;-71
2022/06/19 00:15:55;;;;;;;;;;;15.60;99.90;;;;;;4997250;28;19925;-71
2022/06/19 00:18:20;;;;;;;;;;;15.60;99.90;;;;;;5025490;28;19922;-71
2022/06/19 00:20:46;;;;;;;;;;;15.60;99.90;;;;;;5028896;28;19929;-71
2022/06/19 00:23:12;;;;;;;;;;;15.60;99.90;;;;;;5040187;28;19925;-71
2022/06/19 00:25:38;;;;;;;;;;;15.60;99.90;;;;;;5030682;28;20463;-71
2022/06/19 00:28:05;;;;;;;;;;;15.60;99.90;;;;;;5018290;28;19918;-71
2022/06/19 00:30:30;;;;;;;;;;;15.60;99.90;;;;;;5029417;28;19918;-71
2022/06/19 00:32:57;;;;;;;;;;;15.60;99.90;;;;;;5013598;28;20360;-71
2022/06/19 00:35:24;;;;;;;;;;;15.60;99.90;;;;;;4996313;28;19918;-71
2022/06/19 00:37:49;;;;;;;;;;;15.60;99.90;;;;;;5012845;28;19922;-71
2022/06/19 00:40:15;;;;;;;;;;;15.60;99.90;;;;;;4996272;28;20377;-70
2022/06/19 00:42:41;;;;;;;;;;;15.60;99.90;;;;;;5012654;28;20001;-71
2022/06/19 00:45:06;;;;;;;;;;;15.60;99.90;;;;;;5029163;28;19921;-71
2022/06/19 00:47:35;;;;;;;;;;;15.70;99.90;;;;;;5012607;28;20618;-71
2022/06/19 00:50:06;;;;;;;;;;;15.60;99.90;;;;;;5015104;28;19917;-71
2022/06/19 00:52:32;;;;;;;;;;;15.60;99.90;;;;;;5032534;28;20007;-71
2022/06/19 00:54:59;;;;;;;;;;;15.50;99.90;;;;;;5048090;28;19967;-71
2022/06/19 00:57:27;;;;;;;;;;;15.40;99.90;;;;;;5032055;28;19924;-71
2022/06/19 01:00:01;;;;;;;;;;;15.40;99.90;;;;;;5047012;28;19917;-71
2022/06/19 01:02:26;;;;;;;;;;;15.40;99.90;;;;;;5031054;28;19921;-71
2022/06/19 01:04:54;;;;;;;;;;;15.30;99.90;;;;;;5048479;28;19924;-71
2022/06/19 01:07:22;;;;;;;;;;;15.30;99.90;;;;;;5047757;28;19925;-71
2022/06/19 01:09:51;;;;;;;;;;;15.20;99.90;;;;;;5031223;28;20377;-71
2022/06/19 01:12:17;;;;;;;;;;;15.20;99.90;;;;;;5004155;28;19928;-71
2022/06/19 01:14:44;;;;;;;;;;;15.30;99.90;;;;;;5011914;28;19991;-70
2022/06/19 01:17:10;;;;;;;;;;;15.30;99.90;;;;;;5022213;28;19965;-71
2022/06/19 01:19:39;;;;;;;;;;;15.20;99.90;;;;;;5027032;28;20301;-71
2022/06/19 01:22:12;;;;;;;;;;;15.20;99.90;;;;;;5015094;28;19921;-71
2022/06/19 01:24:56;;;;;;;;;;;15.20;99.90;;;;;;5024760;28;19925;-71
2022/06/19 01:30:08;;;;;;;;;;;15.10;99.90;;;;;;5029709;28;19960;-71
2022/06/19 01:32:35;;;;;;;;;;;15.00;99.90;;;;;;5043710;28;20034;-70
2022/06/19 01:35:01;;;;;;;;;;;15.00;99.90;;;;;;5046416;28;19917;-71
2022/06/19 01:37:28;;;;;;;;;;;15.00;99.90;;;;;;5031212;28;20366;-71
2022/06/19 01:39:53;;;;;;;;;;;15.00;99.90;;;;;;5029309;28;19929;-71
2022/06/19 01:42:19;;;;;;;;;;;15.00;99.90;;;;;;5014858;28;20008;-71
2022/06/19 01:44:45;;;;;;;;;;;15.00;99.90;;;;;;5041792;28;19929;-71
2022/06/19 01:47:11;;;;;;;;;;;15.10;99.90;;;;;;4997329;28;20309;-71
2022/06/19 01:49:38;;;;;;;;;;;15.10;99.90;;;;;;5000293;28;19926;-70
2022/06/19 01:52:05;;;;;;;;;;;15.10;99.90;;;;;;5032219;28;19971;-71
2022/06/19 01:54:37;;;;;;;;;;;15.10;99.90;;;;;;5004390;28;20010;-71
2022/06/19 01:57:08;;;;;;;;;;;15.00;99.90;;;;;;5040514;28;20277;-71
2022/06/19 01:59:34;;;;;;;;;;;15.10;99.90;;;;;;5029252;28;19921;-71
2022/06/19 02:02:01;;;;;;;;;;;15.00;99.90;;;;;;5012213;28;19963;-71
2022/06/19 02:04:27;;;;;;;;;;;15.00;99.90;;;;;;5030163;28;19928;-71
2022/06/19 02:06:56;;;;;;;;;;;15.00;99.90;;;;;;5029878;28;19921;-71
2022/06/19 02:09:23;;;;;;;;;;;15.10;99.90;;;;;;5021284;28;19925;-71
2022/06/19 02:11:48;;;;;;;;;;;15.10;99.90;;;;;;5028937;28;19940;-71
2022/06/19 02:14:14;;;;;;;;;;;15.10;99.90;;;;;;5047180;28;19917;-71
2022/06/19 02:16:41;;;;;;;;;;;15.10;99.90;;;;;;5046003;28;19925;-71
2022/06/19 02:19:07;;;;;;;;;;;15.20;99.90;;;;;;5046287;28;19931;-71
2022/06/19 02:21:37;;;;;;;;;;;15.10;99.90;;;;;;5012229;28;20011;-71
2022/06/19 02:24:03;;;;;;;;;;;15.10;99.90;;;;;;5046903;28;20289;-71
2022/06/19 02:26:29;;;;;;;;;;;15.10;99.90;;;;;;5046971;28;20409;-71
2022/06/19 02:28:54;;;;;;;;;;;15.10;99.90;;;;;;5045380;28;19944;-71
2022/06/19 02:31:20;;;;;;;;;;;15.30;99.90;;;;;;5013826;28;19956;-71
2022/06/19 02:33:50;;;;;;;;;;;15.20;99.90;;;;;;5044570;28;20625;-71
2022/06/19 02:36:34;;;;;;;;;;;15.00;99.90;;;;;;5011949;28;19918;-71
2022/06/19 02:39:16;;;;;;;;;;;15.00;99.90;;;;;;5030309;28;19925;-72
2022/06/19 02:41:46;;;;;;;;;;;15.00;99.90;;;;;;4996362;28;19921;-71
2022/06/19 02:44:12;;;;;;;;;;;15.10;99.90;;;;;;5012979;28;19925;-71
2022/06/19 02:46:38;;;;;;;;;;;15.00;99.90;;;;;;5012753;28;20373;-71
2022/06/19 02:49:04;;;;;;;;;;;14.90;99.90;;;;;;5008124;28;19924;-71
2022/06/19 02:51:29;;;;;;;;;;;14.90;99.90;;;;;;5046289;28;19917;-71
2022/06/19 02:53:55;;;;;;;;;;;15.00;99.90;;;;;;5011736;28;19917;-71
2022/06/19 02:56:20;;;;;;;;;;;15.10;99.90;;;;;;5047164;28;20339;-71
2022/06/19 02:58:46;;;;;;;;;;;15.00;99.90;;;;;;5028715;28;19929;-71
2022/06/19 03:01:13;;;;;;;;;;;15.00;99.90;;;;;;5007624;28;20350;-71
2022/06/19 03:03:38;;;;;;;;;;;14.90;99.90;;;;;;5010337;28;20392;-71
2022/06/19 03:06:05;;;;;;;;;;;14.90;99.90;;;;;;5023629;28;19921;-71
2022/06/19 03:08:30;;;;;;;;;;;14.80;99.90;;;;;;5011841;28;19925;-71
2022/06/19 03:10:56;;;;;;;;;;;14.80;99.90;;;;;;5043882;28;19944;-71
2022/06/19 03:13:21;;;;;;;;;;;14.70;99.90;;;;;;5009880;28;19922;-71
2022/06/19 03:15:47;;;;;;;;;;;14.70;99.90;;;;;;5018781;28;19961;-71
2022/06/19 03:18:13;;;;;;;;;;;14.60;99.90;;;;;;5044980;28;19928;-71
2022/06/19 03:20:38;;;;;;;;;;;14.70;99.90;;;;;;5029514;28;19917;-71
2022/06/19 03:23:04;;;;;;;;;;;14.70;99.90;;;;;;5010050;28;20377;-71
2022/06/19 03:25:29;;;;;;;;;;;14.80;99.90;;;;;;5012880;28;20370;-71
2022/06/19 03:27:55;;;;;;;;;;;14.70;99.90;;;;;;5002295;28;20019;-71
2022/06/19 03:30:21;;;;;;;;;;;14.60;99.90;;;;;;5013789;28;20289;-71
2022/06/19 03:32:46;;;;;;;;;;;14.70;99.90;;;;;;5001970;28;20366;-71
2022/06/19 03:35:13;;;;;;;;;;;14.60;99.90;;;;;;5043356;28;19961;-71
2022/06/19 03:37:39;;;;;;;;;;;14.50;99.90;;;;;;5027424;28;19972;-71
2022/06/19 03:40:05;;;;;;;;;;;14.50;99.90;;;;;;5010944;28;20016;-71
2022/06/19 03:42:30;;;;;;;;;;;14.50;99.90;;;;;;4998427;28;20348;-71
2022/06/19 03:44:56;;;;;;;;;;;14.60;99.90;;;;;;5025865;28;19921;-71
2022/06/19 03:47:23;;;;;;;;;;;14.60;99.90;;;;;;5037904;28;20370;-71
2022/06/19 03:49:49;;;;;;;;;;;14.70;99.90;;;;;;5025108;28;19925;-71
2022/06/19 03:52:14;;;;;;;;;;;14.70;99.90;;;;;;5036854;28;19918;-71
2022/06/19 03:54:40;;;;;;;;;;;14.80;99.90;;;;;;5047581;28;20388;-71
2022/06/19 03:57:05;;;;;;;;;;;14.80;99.90;;;;;;5048775;28;19923;-71
2022/06/19 03:59:31;;;;;;;;;;;14.90;99.90;;;;;;5023824;28;19922;-71
2022/06/19 04:01:56;;;;;;;;;;;14.90;99.90;;;;;;5029384;28;19953;-71
2022/06/19 04:04:22;;;;;;;;;;;14.60;99.90;;;;;;5037530;28;19918;-71
2022/06/19 04:06:47;;;;;;;;;;;14.40;99.90;;;;;;5015619;28;19917;-71
2022/06/19 04:09:14;;;;;;;;;;;14.30;99.90;;;;;;5015936;28;20357;-72
2022/06/19 04:11:41;;;;;;;;;;;14.30;99.90;;;;;;5027708;28;20381;-72
2022/06/19 04:14:07;;;;;;;;;;;14.10;99.90;;;;;;5046901;28;20270;-72
2022/06/19 04:16:34;;;;;;;;;;;14.10;99.90;;;;;;5049689;28;19922;-72
2022/06/19 04:19:02;;;;;;;;;;;14.00;99.90;;;;;;5014700;28;20410;-71
2022/06/19 04:21:28;;;;;;;;;;;13.80;99.90;;;;;;5046154;28;19918;-71
2022/06/19 04:23:55;;;;;;;;;;;13.70;99.90;;;;;;5032098;28;19924;-71
2022/06/19 04:26:21;;;;;;;;;;;13.70;99.90;;;;;;5030183;28;19925;-71
2022/06/19 04:28:47;;;;;;;;;;;13.70;99.90;;;;;;5008119;28;19917;-71
2022/06/19 04:31:12;;;;;;;;;;;13.70;99.90;;;;;;5044959;28;19917;-71
2022/06/19 04:33:39;;;;;;;;;;;13.60;99.90;;;;;;5014608;28;19998;-72
2022/06/19 04:36:05;;;;;;;;;;;13.60;99.90;;;;;;5031843;28;19968;-72
2022/06/19 04:38:30;;;;;;;;;;;13.70;99.90;;;;;;5046461;28;19952;-71
2022/06/19 04:40:56;;;;;;;;;;;13.80;99.90;;;;;;5030640;28;20451;-72
2022/06/19 04:43:21;;;;;;;;;;;13.90;99.90;;;;;;5033288;28;20015;-72
2022/06/19 04:45:47;;;;;;;;;;;14.00;99.90;;;;;;5039316;28;19971;-72
2022/06/19 04:48:13;;;;;;;;;;;14.00;99.90;;;;;;5015933;28;19975;-71
2022/06/19 04:50:39;;;;;;;;;;;14.10;99.90;;;;;;5013647;28;19925;-71
2022/06/19 04:53:04;;;;;;;;;;;14.10;99.90;;;;;;5048119;28;19925;-72
2022/06/19 04:55:30;;;;;;;;;;;14.00;99.90;;;;;;4999879;28;19924;-71
2022/06/19 04:57:59;;;;;;;;;;;14.00;99.90;;;;;;5029896;28;19926;-71
2022/06/19 05:00:25;;;;;;;;;;;14.10;99.90;;;;;;5015002;28;19918;-71
2022/06/19 05:02:50;;;;;;;;;;;14.00;99.90;;;;;;5048925;28;19924;-71
2022/06/19 05:05:17;;;;;;;;;;;14.20;99.90;;;;;;5014230;28;20047;-71
2022/06/19 05:07:43;;;;;;;;;;;14.10;99.90;;;;;;5014902;28;19924;-72
2022/06/19 05:10:10;;;;;;;;;;;14.10;99.90;;;;;;5030883;28;19921;-71
2022/06/19 05:12:36;;;;;;;;;;;14.10;99.90;;;;;;5013387;28;20423;-71
2022/06/19 05:15:02;;;;;;;;;;;14.10;99.90;;;;;;5047101;28;19917;-71
2022/06/19 05:17:27;;;;;;;;;;;14.10;99.90;;;;;;5030615;28;19917;-72
2022/06/19 05:19:53;;;;;;;;;;;14.10;99.90;;;;;;5047672;28;19968;-71
2022/06/19 05:22:18;;;;;;;;;;;14.10;99.90;;;;;;5042760;28;20396;-72
2022/06/19 05:24:44;;;;;;;;;;;13.90;99.90;;;;;;5041279;28;19918;-71
2022/06/19 05:27:10;;;;;;;;;;;13.90;99.90;;;;;;5025476;28;20377;-72
2022/06/19 05:29:36;;;;;;;;;;;14.10;99.90;;;;;;5004196;28;19971;-71
2022/06/19 05:32:04;;;;;;;;;;;14.00;99.90;;;;;;5041435;28;20004;-72
2022/06/19 05:34:30;;;;;;;;;;;13.90;99.90;;;;;;5041550;28;20017;-72
2022/06/19 05:36:56;;;;;;;;;;;13.80;99.90;;;;;;5013034;28;19923;-72
2022/06/19 05:39:21;;;;;;;;;;;13.70;99.90;;;;;;5039190;28;20004;-71
2022/06/19 05:41:47;;;;;;;;;;;13.80;99.90;;;;;;5025247;28;19922;-72
2022/06/19 05:44:12;;;;;;;;;;;13.80;99.90;;;;;;5021429;28;19963;-72
2022/06/19 05:46:38;;;;;;;;;;;13.70;99.90;;;;;;5047259;28;19921;-71
2022/06/19 05:49:03;;;;;;;;;;;13.70;99.90;;;;;;5031214;28;19968;-71
2022/06/19 05:51:30;;;;;;;;;;;13.70;99.90;;;;;;4997796;28;19917;-71
2022/06/19 05:53:56;;;;;;;;;;;13.80;99.90;;;;;;5014890;28;19921;-71
2022/06/19 05:56:23;;;;;;;;;;;13.80;99.90;;;;;;5045131;28;20397;-71
2022/06/19 05:58:48;;;;;;;;;;;13.80;99.90;;;;;;5046704;28;20293;-72
2022/06/19 06:01:15;;;;;;;;;;;13.90;99.90;;;;;;5030145;28;19925;-71
2022/06/19 06:03:42;;;;;;;;;;;13.90;99.90;;;;;;5046634;28;19925;-71
2022/06/19 06:06:11;;;;;;;;;;;13.90;99.90;;;;;;5030011;28;20280;-71
2022/06/19 06:08:37;;;;;;;;;;;13.90;99.90;;;;;;5030649;28;19924;-71
2022/06/19 06:11:03;;;;;;;;;;;13.90;99.90;;;;;;5013763;28;19956;-72
2022/06/19 06:13:31;;;;;;;;;;;13.90;99.90;;;;;;5030469;28;19999;-72
2022/06/19 06:15:57;;;;;;;;;;;14.00;99.90;;;;;;5028760;28;20411;-72
2022/06/19 06:18:23;;;;;;;;;;;14.10;99.90;;;;;;5012580;28;19921;-71
2022/06/19 06:20:59;;;;;;;;;;;14.00;99.90;;;;;;5047451;28;19921;-72
2022/06/19 06:23:25;;;;;;;;;;;14.10;99.90;;;;;;5027681;28;20454;-72
2022/06/19 06:26:04;;;;;;;;;;;14.00;99.90;;;;;;5015742;28;19921;-72
2022/06/19 06:28:30;;;;;;;;;;;14.10;99.90;;;;;;5012650;28;19950;-72
2022/06/19 06:30:56;;;;;;;;;;;14.10;99.90;;;;;;5012956;28;20000;-72
2022/06/19 06:33:21;;;;;;;;;;;14.10;99.90;;;;;;5013830;28;20020;-71
2022/06/19 06:35:47;;;;;;;;;;;14.10;99.90;;;;;;5011760;28;20297;-71
2022/06/19 06:38:12;;;;;;;;;;;14.10;99.90;;;;;;5045541;28;20366;-72
2022/06/19 06:40:38;;;;;;;;;;;14.10;99.90;;;;;;4989717;28;19971;-71
2022/06/19 06:43:03;;;;;;;;;;;14.10;99.90;;;;;;5042832;28;20005;-71
2022/06/19 06:45:29;;;;;;;;;;;14.10;99.90;;;;;;5042506;28;20000;-71
2022/06/19 06:47:55;;;;;;;;;;;14.10;99.90;;;;;;5033718;28;19924;-71
2022/06/19 06:50:20;;;;;;;;;;;14.10;99.90;;;;;;5028955;28;20008;-72
2022/06/19 06:52:46;;;;;;;;;;;14.20;99.90;;;;;;5009834;28;19921;-72
2022/06/19 06:55:12;;;;;;;;;;;14.20;99.90;;;;;;5015456;28;19921;-72
2022/06/19 06:57:37;;;;;;;;;;;14.10;99.90;;;;;;5034276;28;19917;-72
2022/06/19 07:00:03;;;;;;;;;;;14.20;99.90;;;;;;5045305;28;19924;-72
2022/06/19 07:02:29;;;;;;;;;;;14.40;99.90;;;;;;5012710;28;19921;-71
2022/06/19 07:04:55;;;;;;;;;;;14.50;99.90;;;;;;5024137;28;19933;-72
2022/06/19 07:07:21;;;;;;;;;;;14.40;99.90;;;;;;5026027;28;19917;-71
2022/06/19 07:09:46;;;;;;;;;;;14.40;99.90;;;;;;5044485;28;19944;-71
2022/06/19 07:12:11;;;;;;;;;;;14.30;99.90;;;;;;4993644;28;19917;-77
2022/06/19 07:14:37;;;;;;;;;;;14.50;99.90;;;;;;5038877;28;20427;-77
2022/06/19 07:17:02;;;;;;;;;;;14.50;99.90;;;;;;5045563;28;19917;-76
2022/06/19 07:19:28;;;;;;;;;;;14.60;99.90;;;;;;5010231;28;20015;-71
2022/06/19 07:21:53;;;;;;;;;;;14.60;99.90;;;;;;5028844;28;19925;-72
2022/06/19 07:24:19;;;;;;;;;;;14.50;99.90;;;;;;5009099;28;20381;-73
2022/06/19 07:26:45;;;;;;;;;;;14.60;99.90;;;;;;5010037;28;19968;-72
2022/06/19 07:29:11;;;;;;;;;;;14.50;99.90;;;;;;4996062;28;19924;-72
2022/06/19 07:31:36;;;;;;;;;;;14.50;99.90;;;;;;5010428;28;19921;-72
2022/06/19 07:34:02;;;;;;;;;;;14.40;99.90;;;;;;5044724;28;19964;-72
2022/06/19 07:36:28;;;;;;;;;;;14.40;99.90;;;;;;5006399;28;19921;-72
2022/06/19 07:38:53;;;;;;;;;;;14.40;99.90;;;;;;5044099;28;20012;-72
2022/06/19 07:41:19;;;;;;;;;;;14.60;99.90;;;;;;5028515;28;19975;-72
2022/06/19 07:43:46;;;;;;;;;;;14.50;99.90;;;;;;5008958;28;19917;-71
2022/06/19 07:46:12;;;;;;;;;;;14.50;99.90;;;;;;4992952;28;19960;-72
2022/06/19 07:51:23;;;;;;;;;;;14.40;99.90;;;;;;5010854;28;20286;-72
2022/06/19 07:53:49;;;;;;;;;;;14.40;99.90;;;;;;5027596;28;19924;-72
2022/06/19 07:56:14;;;;;;;;;;;14.50;99.90;;;;;;5032496;28;19918;-72
2022/06/19 07:58:40;;;;;;;;;;;14.40;99.90;;;;;;5028137;28;19964;-72
2022/06/19 08:01:05;;;;;;;;;;;14.50;99.90;;;;;;5026751;28;20328;-71
2022/06/19 08:03:31;;;;;;;;;;;14.50;99.90;;;;;;5023874;28;19925;-72
2022/06/19 08:05:56;;;;;;;;;;;14.30;99.90;;;;;;5020580;28;19961;-72
2022/06/19 08:08:24;;;;;;;;;;;14.20;99.90;;;;;;5044469;28;19917;-72
2022/06/19 08:10:51;;;;;;;;;;;14.30;99.90;;;;;;5002341;28;20328;-72
2022/06/19 08:13:20;;;;;;;;;;;14.40;99.90;;;;;;5005449;28;20007;-72
2022/06/19 08:15:54;;;;;;;;;;;14.40;99.90;;;;;;5044873;28;19924;-72
2022/06/19 08:18:19;;;;;;;;;;;14.50;99.90;;;;;;5044267;28;19944;-72
2022/06/19 08:20:46;;;;;;;;;;;14.50;99.90;;;;;;5043841;28;20366;-72
2022/06/19 08:23:13;;;;;;;;;;;14.50;99.90;;;;;;5025327;28;20335;-72
2022/06/19 08:25:39;;;;;;;;;;;14.50;99.90;;;;;;5010869;28;20388;-72
2022/06/19 08:28:05;;;;;;;;;;;14.60;99.90;;;;;;5044289;28;20275;-72
2022/06/19 08:30:33;;;;;;;;;;;14.60;99.90;;;;;;5027366;28;19917;-72
2022/06/19 08:32:58;;;;;;;;;;;14.60;99.90;;;;;;5037109;28;19925;-72
2022/06/19 08:35:24;;;;;;;;;;;14.60;99.90;;;;;;4992306;28;19918;-72
2022/06/19 08:37:52;;;;;;;;;;;14.50;99.90;;;;;;5005938;28;20398;-72
2022/06/19 08:40:29;;;;;;;;;;;14.50;99.90;;;;;;5016702;28;19968;-72
2022/06/19 08:42:55;;;;;;;;;;;14.60;99.90;;;;;;5019176;28;20269;-72
2022/06/19 08:45:23;;;;;;;;;;;14.80;99.90;;;;;;5048020;28;19917;-72
2022/06/19 08:48:24;;;;;;;;;;;14.70;99.90;;;;;;5031069;28;19917;-71
2022/06/19 08:50:50;;;;;;;;;;;14.80;99.90;;;;;;5009933;28;19932;-72
2022/06/19 08:53:21;;;;;;;;;;;14.70;99.90;;;;;;5040037;28;19921;-72
2022/06/19 08:56:09;;;;;;;;;;;14.80;99.90;;;;;;5046821;28;19959;-72
2022/06/19 08:58:47;;;;;;;;;;;14.90;99.90;;;;;;5014892;28;19921;-72
2022/06/19 09:01:19;;;;;;;;;;;14.90;99.90;;;;;;5047458;28;19918;-72
2022/06/19 09:06:45;;;;;;;;;;;15.00;99.90;;;;;;5027030;28;19917;-72
2022/06/19 09:09:20;;;;;;;;;;;15.00;99.90;;;;;;5014790;28;19917;-72
2022/06/19 09:12:00;;;;;;;;;;;15.10;99.90;;;;;;5031549;28;19917;-72
2022/06/19 09:14:33;;;;;;;;;;;15.10;99.90;;;;;;5047840;28;20058;-72
2022/06/19 09:17:12;;;;;;;;;;;15.20;99.90;;;;;;5048109;28;20289;-72
2022/06/19 09:19:47;;;;;;;;;;;15.10;99.90;;;;;;5031293;28;20406;-72
2022/06/19 09:22:15;;;;;;;;;;;15.10;99.90;;;;;;5048121;28;19917;-73
2022/06/19 09:24:48;;;;;;;;;;;15.20;99.90;;;;;;5014255;28;19979;-73
2022/06/19 09:27:15;;;;;;;;;;;15.20;99.90;;;;;;5015323;28;19917;-72
2022/06/19 09:29:51;;;;;;;;;;;15.20;99.90;;;;;;5028685;28;19940;-72
2022/06/19 09:32:41;;;;;;;;;;;15.20;99.90;;;;;;5036800;28;20023;-73
2022/06/19 09:35:06;;;;;;;;;;;15.20;99.90;;;;;;5014476;28;19921;-72
2022/06/19 09:37:55;;;;;;;;;;;15.20;99.90;;;;;;5032211;28;19924;-72
2022/06/19 09:40:23;;;;;;;;;;;15.20;99.90;;;;;;4995831;28;19928;-71
2022/06/19 09:43:08;;;;;;;;;;;15.20;99.90;;;;;;5013805;28;19921;-72
2022/06/19 09:45:33;;;;;;;;;;;15.20;99.90;;;;;;5030140;28;19917;-72
2022/06/19 09:48:08;;;;;;;;;;;15.30;99.90;;;;;;5045246;28;19917;-72
2022/06/19 09:50:41;;;;;;;;;;;15.30;99.90;;;;;;5014817;28;20413;-72
2022/06/19 09:53:09;;;;;;;;;;;15.20;99.90;;;;;;5026933;28;19921;-72
2022/06/19 09:55:43;;;;;;;;;;;15.30;99.90;;;;;;5046897;28;19918;-72
2022/06/19 09:58:15;;;;;;;;;;;15.20;99.90;;;;;;5009104;28;19921;-72
2022/06/19 10:00:41;;;;;;;;;;;15.10;99.90;;;;;;5027815;28;20021;-72
2022/06/19 10:03:31;;;;;;;;;;;15.10;99.90;;;;;;5020496;28;19922;-72
2022/06/19 10:05:59;;;;;;;;;;;15.30;99.90;;;;;;5014198;28;20357;-72
2022/06/19 10:08:38;;;;;;;;;;;15.40;99.90;;;;;;5029928;28;19940;-72
2022/06/19 10:11:12;;;;;;;;;;;15.50;99.90;;;;;;5010202;28;20382;-72
2022/06/19 10:14:10;;;;;;;;;;;15.60;99.90;;;;;;5012687;28;20369;-72
2022/06/19 10:16:54;;;;;;;;;;;15.60;99.90;;;;;;5007207;28;20386;-72
2022/06/19 10:19:20;;;;;;;;;;;15.70;99.90;;;;;;5022450;28;19952;-72
2022/06/19 10:24:56;;;;;;;;;;;15.80;99.90;;;;;;5045895;28;19925;-72
2022/06/19 10:27:22;;;;;;;;;;;15.70;99.90;;;;;;5007180;28;20063;-72
2022/06/19 10:30:06;;;;;;;;;;;15.70;99.90;;;;;;5029229;28;20012;-72
2022/06/19 10:32:37;;;;;;;;;;;15.70;99.90;;;;;;5046056;28;19918;-72
2022/06/19 10:35:15;;;;;;;;;;;15.70;99.90;;;;;;5013579;28;19968;-72
2022/06/19 10:38:01;;;;;;;;;;;15.80;99.90;;;;;;5027743;28;19943;-72
2022/06/19 10:40:45;;;;;;;;;;;15.80;99.90;;;;;;5040638;28;19925;-72
2022/06/19 10:43:18;;;;;;;;;;;15.80;99.90;;;;;;5044071;28;19918;-72
2022/06/19 10:45:45;;;;;;;;;;;15.70;99.90;;;;;;5042206;28;19917;-71
2022/06/19 10:48:14;;;;;;;;;;;15.80;99.90;;;;;;4998544;28;19924;-71
2022/06/19 10:50:43;;;;;;;;;;;15.80;99.90;;;;;;5029537;28;19918;-72
2022/06/19 10:53:27;;;;;;;;;;;15.80;99.90;;;;;;5034227;28;19917;-71
2022/06/19 10:56:05;;;;;;;;;;;15.80;99.90;;;;;;5012546;28;20396;-72
2022/06/19 10:58:30;;;;;;;;;;;15.90;99.90;;;;;;5013434;28;19929;-71
2022/06/19 11:00:58;;;;;;;;;;;15.90;99.90;;;;;;5034468;28;19921;-71
2022/06/19 11:06:39;;;;;;;;;;;16.00;99.90;;;;;;5034218;28;19918;-72
2022/06/19 11:09:06;;;;;;;;;;;16.20;99.90;;;;;;5032391;28;20573;-72
2022/06/19 11:11:33;;;;;;;;;;;16.10;99.90;;;;;;5004137;28;19924;-71
2022/06/19 11:14:07;;;;;;;;;;;15.90;99.90;;;;;;5007549;28;19918;-72
2022/06/19 11:16:33;;;;;;;;;;;15.90;99.90;;;;;;5036888;28;19917;-71
2022/06/19 11:18:59;;;;;;;;;;;15.80;99.90;;;;;;5037386;28;19922;-71
2022/06/19 11:21:31;;;;;;;;;;;15.80;99.90;;;;;;5026148;28;19924;-71
2022/06/19 11:23:58;;;;;;;;;;;15.90;99.90;;;;;;5041762;28;20400;-72
2022/06/19 11:26:23;;;;;;;;;;;15.80;99.90;;;;;;5004416;28;19965;-72
2022/06/19 11:29:00;;;;;;;;;;;15.80;99.90;;;;;;5027855;28;19979;-72
2022/06/19 11:31:27;;;;;;;;;;;15.80;99.90;;;;;;5010694;28;20436;-71
2022/06/19 11:33:55;;;;;;;;;;;15.70;99.90;;;;;;5026408;28;19925;-72
2022/06/19 11:36:27;;;;;;;;;;;15.70;99.90;;;;;;5010060;28;19953;-72
2022/06/19 11:38:54;;;;;;;;;;;15.70;99.90;;;;;;5044673;28;19921;-72
2022/06/19 11:41:25;;;;;;;;;;;15.70;99.90;;;;;;5023796;28;19976;-71
2022/06/19 11:44:14;;;;;;;;;;;15.70;99.90;;;;;;5029108;28;19952;-71
2022/06/19 11:46:53;;;;;;;;;;;15.60;99.90;;;;;;4991241;28;19965;-72
2022/06/19 11:49:25;;;;;;;;;;;15.60;99.90;;;;;;5003248;28;19925;-72
2022/06/19 11:51:51;;;;;;;;;;;15.70;99.90;;;;;;5009821;28;20396;-72
2022/06/19 11:54:22;;;;;;;;;;;15.70;99.90;;;;;;5027680;28;20235;-72
2022/06/19 11:56:49;;;;;;;;;;;15.80;99.90;;;;;;5004030;28;19918;-72
2022/06/19 11:59:23;;;;;;;;;;;15.80;99.90;;;;;;5021425;28;19940;-72
2022/06/19 12:01:49;;;;;;;;;;;15.80;99.90;;;;;;4995330;28;19917;-72
2022/06/19 12:04:22;;;;;;;;;;;15.80;99.90;;;;;;5008983;28;20369;-72
2022/06/19 12:06:50;;;;;;;;;;;15.80;99.90;;;;;;5023878;28;19983;-72
2022/06/19 12:09:28;;;;;;;;;;;15.90;99.90;;;;;;5041530;28;19975;-72
2022/06/19 12:11:56;;;;;;;;;;;15.80;99.90;;;;;;5025514;28;20320;-72
2022/06/19 12:14:36;;;;;;;;;;;15.80;99.90;;;;;;5043868;28;20007;-72
2022/06/19 12:17:20;;;;;;;;;;;15.80;99.90;;;;;;5031558;28;19924;-72
2022/06/19 12:19:52;;;;;;;;;;;15.90;99.90;;;;;;5046437;28;20008;-72
2022/06/19 12:22:20;;;;;;;;;;;15.80;99.90;;;;;;5046885;28;19925;-72
2022/06/19 12:24:49;;;;;;;;;;;15.90;99.90;;;;;;5029823;28;19917;-72
2022/06/19 12:27:17;;;;;;;;;;;15.90;99.90;;;;;;5048466;28;19967;-72
2022/06/19 12:29:46;;;;;;;;;;;16.00;99.90;;;;;;5030323;28;19940;-72
2022/06/19 12:32:14;;;;;;;;;;;16.00;99.90;;;;;;5030311;28;20004;-72
2022/06/19 12:34:43;;;;;;;;;;;16.20;99.90;;;;;;5044805;28;19917;-72
2022/06/19 12:37:23;;;;;;;;;;;16.30;99.90;;;;;;5048010;28;19917;-72
2022/06/19 12:39:48;;;;;;;;;;;16.40;99.90;;;;;;5030798;28;20271;-72
2022/06/19 12:42:21;;;;;;;;;;;16.50;99.90;;;;;;5048196;28;19924;-72
2022/06/19 12:45:00;;;;;;;;;;;16.30;99.90;;;;;;5014030;28;19961;-72
2022/06/19 12:47:35;;;;;;;;;;;16.10;99.90;;;;;;5014906;28;19921;-72
2022/06/19 12:50:17;;;;;;;;;;;16.30;99.90;;;;;;5031436;28;20389;-71
2022/06/19 12:52:58;;;;;;;;;;;16.20;99.90;;;;;;5028531;28;19979;-72
2022/06/19 12:55:33;;;;;;;;;;;16.10;99.90;;;;;;5013549;28;19925;-72
2022/06/19 12:58:10;;;;;;;;;;;16.20;99.90;;;;;;5022515;28;19924;-72
2022/06/19 13:00:38;;;;;;;;;;;16.10;99.90;;;;;;5012794;28;19921;-72
2022/06/19 13:03:24;;;;;;;;;;;16.00;99.90;;;;;;5046107;28;19921;-72
2022/06/19 13:05:57;;;;;;;;;;;16.00;99.90;;;;;;5003829;28;19917;-71
2022/06/19 13:08:31;;;;;;;;;;;15.80;99.90;;;;;;5047268;28;19968;-72
2022/06/19 13:11:06;;;;;;;;;;;15.90;99.90;;;;;;5011770;28;20385;-72
2022/06/19 13:13:44;;;;;;;;;;;15.80;99.90;;;;;;5011799;28;19924;-72
2022/06/19 13:16:19;;;;;;;;;;;15.90;99.90;;;;;;4997113;28;19917;-72
2022/06/19 13:19:02;;;;;;;;;;;15.90;99.90;;;;;;5029613;28;19921;-72
2022/06/19 13:21:35;;;;;;;;;;;15.90;99.90;;;;;;5003093;28;20015;-72
2022/06/19 13:24:19;;;;;;;;;;;15.90;99.90;;;;;;5041261;28;19940;-72
2022/06/19 13:27:10;;;;;;;;;;;15.90;99.90;;;;;;5044915;28;19921;-72
2022/06/19 13:29:43;;;;;;;;;;;15.90;99.90;;;;;;5009278;28;20164;-71
2022/06/19 13:32:15;;;;;;;;;;;15.90;99.90;;;;;;5014132;28;20440;-72
2022/06/19 13:34:41;;;;;;;;;;;15.80;99.90;;;;;;5030952;28;20004;-72
2022/06/19 13:37:39;;;;;;;;;;;15.90;99.90;;;;;;5033448;28;19967;-71
2022/06/19 13:40:19;;;;;;;;;;;15.90;99.90;;;;;;5035862;28;19925;-71
2022/06/19 13:43:03;;;;;;;;;;;16.00;99.90;;;;;;5030763;28;19924;-72
2022/06/19 13:45:51;;;;;;;;;;;16.00;99.90;;;;;;5042739;28;20289;-72
2022/06/19 13:48:19;;;;;;;;;;;16.10;99.90;;;;;;5024680;28;19917;-72
2022/06/19 13:50:47;;;;;;;;;;;16.20;99.90;;;;;;5002232;28;19969;-72
2022/06/19 13:53:25;;;;;;;;;;;16.20;99.90;;;;;;5034713;28;19917;-72
2022/06/19 13:55:59;;;;;;;;;;;16.30;99.90;;;;;;4994236;28;19917;-72
2022/06/19 13:58:46;;;;;;;;;;;16.30;99.90;;;;;;5030277;28;19921;-72
2022/06/19 14:01:26;;;;;;;;;;;16.30;99.90;;;;;;5045235;28;20358;-72
2022/06/19 14:06:42;;;;;;;;;;;16.50;99.90;;;;;;5034779;28;19926;-72
2022/06/19 14:09:20;;;;;;;;;;;16.70;99.90;;;;;;5044734;28;20008;-72
2022/06/19 14:12:06;;;;;;;;;;;16.70;99.90;;;;;;4994722;28;19928;-72
2022/06/19 14:14:37;;;;;;;;;;;16.70;99.90;;;;;;5015260;28;19932;-72
2022/06/19 14:17:22;;;;;;;;;;;16.80;99.90;;;;;;5024874;28;19924;-72
2022/06/19 14:20:08;;;;;;;;;;;16.80;99.90;;;;;;5011472;28;19921;-72
2022/06/19 14:22:40;;;;;;;;;;;16.90;99.90;;;;;;5045750;28;20433;-72
2022/06/19 14:25:17;;;;;;;;;;;17.00;99.90;;;;;;5045252;28;19918;-72
2022/06/19 14:27:58;;;;;;;;;;;17.00;99.90;;;;;;5039623;28;20012;-72
2022/06/19 14:30:26;;;;;;;;;;;17.10;99.90;;;;;;5031320;28;20016;-72
2022/06/19 14:32:56;;;;;;;;;;;17.10;99.90;;;;;;5010696;28;19921;-72
2022/06/19 14:35:27;;;;;;;;;;;17.10;99.90;;;;;;5011356;28;19947;-72
2022/06/19 14:37:54;;;;;;;;;;;17.00;99.90;;;;;;5013757;28;19921;-71
2022/06/19 14:40:20;;;;;;;;;;;17.00;99.90;;;;;;5011323;28;19975;-71
2022/06/19 14:42:48;;;;;;;;;;;16.90;99.90;;;;;;5008762;28;19922;-72
2022/06/19 14:45:18;;;;;;;;;;;17.20;99.90;;;;;;5009156;28;19921;-72
2022/06/19 14:48:08;;;;;;;;;;;17.10;99.90;;;;;;5027201;28;19918;-71